Terminal Aerodrome Forecast
Issued by NWS

Home | Current Version | Previous Version | Text Only | Print | Product List | Glossary On
Versions: 1 2 3 4 5 6 7 8 9 10 11 12 13 14 15 16 17 18 19 20 21
000
FTUS43 KLSX 190532
TAFSUS
TAF
KSUS 190532Z 1906/2006 VRB04KT 6SM BR SCT007
     FM190900 VRB03KT 4SM BR BKN007
     FM191100 VRB03KT 2SM BR BKN005
     FM191500 VRB04KT P6SM SCT010
     FM192100 14007KT P6SM SCT250=

USA.gov is the U.S. government's official web portal to all federal, state and local government web resources and services.